TimeEST,TemperatureF,Dew PointF,Humidity,Sea Level PressureIn,VisibilityMPH,Wind Direction,Wind SpeedMPH,Gust SpeedMPH,PrecipitationIn,Events,Conditions,WindDirDegrees,DateUTC
12:53 AM,71.1,69.1,93,30.03,10.0,South,9.2,-,N/A,,Mostly Cloudy,180,2013-02-23 05:53:00
1:53 AM,71.1,69.1,93,30.02,10.0,South,5.8,-,0.00,Rain,Light Rain,180,2013-02-23 06:53:00
2:53 AM,71.1,69.1,93,30.00,10.0,South,10.4,-,0.00,,Mostly Cloudy,170,2013-02-23 07:53:00
3:53 AM,71.1,69.1,93,30.00,10.0,South,10.4,-,N/A,,Mostly Cloudy,180,2013-02-23 08:53:00
4:53 AM,70.0,69.1,97,29.99,10.0,South,9.2,-,N/A,,Scattered Clouds,190,2013-02-23 09:53:00
5:01 AM,69.8,69.8,100,29.99,10.0,South,9.2,-,N/A,,Scattered Clouds,180,2013-02-23 10:01:00
5:05 AM,69.8,69.8,100,29.99,10.0,South,9.2,-,N/A,,Mostly Cloudy,180,2013-02-23 10:05:00
5:10 AM,69.8,69.8,100,29.99,10.0,South,10.4,-,N/A,,Mostly Cloudy,180,2013-02-23 10:10:00
5:53 AM,70.0,69.1,97,29.99,10.0,South,10.4,-,N/A,,Overcast,180,2013-02-23 10:53:00
6:00 AM,69.8,68.0,94,29.99,10.0,South,9.2,-,N/A,,Scattered Clouds,190,2013-02-23 11:00:00
6:14 AM,69.8,69.8,100,29.99,10.0,South,8.1,-,N/A,,Mostly Cloudy,180,2013-02-23 11:14:00
6:25 AM,69.8,69.8,100,29.99,10.0,South,10.4,-,N/A,,Overcast,180,2013-02-23 11:25:00
6:39 AM,69.8,68.0,94,29.99,10.0,South,10.4,-,N/A,,Mostly Cloudy,180,2013-02-23 11:39:00
6:53 AM,70.0,69.1,97,29.99,10.0,South,13.8,-,N/A,,Overcast,180,2013-02-23 11:53:00
7:15 AM,69.8,69.8,100,30.00,10.0,South,10.4,-,N/A,,Overcast,180,2013-02-23 12:15:00
7:53 AM,71.1,69.1,93,30.00,10.0,South,15.0,19.6,N/A,,Overcast,190,2013-02-23 12:53:00
8:53 AM,73.0,69.1,87,30.02,10.0,South,13.8,-,N/A,,Overcast,190,2013-02-23 13:53:00
9:19 AM,73.4,68.0,83,30.02,10.0,South,16.1,-,N/A,,Overcast,190,2013-02-23 14:19:00
9:53 AM,77.0,68.0,74,30.01,10.0,South,15.0,20.7,N/A,,Overcast,190,2013-02-23 14:53:00
10:53 AM,79.0,66.9,66,30.00,10.0,SSW,17.3,24.2,N/A,,Scattered Clouds,200,2013-02-23 15:53:00
11:43 AM,82.4,66.2,58,29.99,10.0,SW,15.0,21.9,N/A,,Mostly Cloudy,220,2013-02-23 16:43:00
11:53 AM,82.0,66.0,58,29.99,10.0,SSW,18.4,23.0,N/A,,Mostly Cloudy,210,2013-02-23 16:53:00
12:53 PM,84.9,66.0,53,29.96,10.0,SW,12.7,-,N/A,,Mostly Cloudy,230,2013-02-23 17:53:00
1:53 PM,86.0,64.0,48,29.92,10.0,SSW,15.0,20.7,N/A,,Mostly Cloudy,210,2013-02-23 18:53:00
2:53 PM,88.0,63.0,43,29.90,10.0,SW,13.8,25.3,N/A,,Mostly Cloudy,230,2013-02-23 19:53:00
3:53 PM,87.1,62.1,43,29.89,10.0,SW,16.1,21.9,N/A,,Mostly Cloudy,230,2013-02-23 20:53:00
4:53 PM,86.0,61.0,43,29.88,10.0,WSW,18.4,25.3,N/A,,Mostly Cloudy,240,2013-02-23 21:53:00
5:53 PM,82.9,62.1,49,29.89,10.0,WSW,9.2,-,N/A,,Mostly Cloudy,240,2013-02-23 22:53:00
6:53 PM,80.1,63.0,56,29.91,10.0,WSW,6.9,-,N/A,,Mostly Cloudy,240,2013-02-23 23:53:00
7:53 PM,77.0,63.0,62,29.93,10.0,West,5.8,-,N/A,,Mostly Cloudy,270,2013-02-24 00:53:00
8:53 PM,75.9,66.9,74,29.94,10.0,WSW,5.8,-,N/A,,Mostly Cloudy,250,2013-02-24 01:53:00
9:53 PM,73.9,69.1,85,29.95,10.0,WSW,6.9,-,N/A,,Scattered Clouds,240,2013-02-24 02:53:00
10:53 PM,72.0,70.0,93,29.96,10.0,SW,5.8,-,N/A,,Scattered Clouds,230,2013-02-24 03:53:00
11:53 PM,71.1,70.0,96,29.95,9.0,SW,8.1,-,N/A,,Scattered Clouds,220,2013-02-24 04:53:00